createdAt,value
2023-04-27T00:02:59.625Z,2.39
2023-04-27T00:08:03.215Z,2.37
2023-04-27T00:13:06.223Z,2.36
2023-04-27T00:18:09.113Z,2.35
2023-04-27T00:23:12.067Z,2.36
2023-04-27T00:28:15.273Z,2.38
2023-04-27T00:33:18.233Z,2.40
2023-04-27T00:38:21.243Z,2.40
2023-04-27T00:43:24.168Z,2.39
2023-04-27T00:48:27.296Z,2.38
2023-04-27T00:53:32.048Z,2.34
2023-04-27T00:58:35.044Z,2.31
2023-04-27T01:03:38.076Z,2.31
2023-04-27T01:08:41.333Z,2.28
2023-04-27T01:13:44.737Z,2.26
2023-04-27T01:18:47.792Z,2.24
2023-04-27T01:23:50.664Z,2.23
2023-04-27T01:28:53.496Z,2.23
2023-04-27T01:33:56.651Z,2.21
2023-04-27T01:38:59.507Z,2.19
2023-04-27T01:44:02.376Z,2.17
2023-04-27T01:49:05.812Z,2.16
2023-04-27T01:54:08.694Z,2.12
2023-04-27T01:59:11.760Z,2.07
2023-04-27T02:04:15.141Z,2.03
2023-04-27T02:09:18.410Z,2.04
2023-04-27T02:14:21.285Z,2.05
2023-04-27T02:19:24.292Z,2.04
2023-04-27T02:24:27.248Z,2.05
2023-04-27T02:29:31.693Z,2.05
2023-04-27T02:34:35.004Z,2.01
2023-04-27T02:39:37.866Z,1.97
2023-04-27T02:44:40.823Z,1.94
2023-04-27T02:49:43.943Z,1.93
2023-04-27T02:54:46.927Z,1.92
2023-04-27T02:59:49.867Z,1.94
2023-04-27T03:04:54.922Z,1.92
2023-04-27T03:09:57.757Z,1.85
2023-04-27T03:15:01.229Z,1.76
2023-04-27T03:20:08.599Z,1.71
2023-04-27T03:25:11.934Z,1.71
2023-04-27T03:30:15.397Z,1.72
2023-04-27T03:35:18.276Z,1.87
2023-04-27T03:40:21.392Z,2.40
2023-04-27T03:45:24.797Z,3.13
2023-04-27T03:50:29.962Z,3.75
2023-04-27T03:55:33.331Z,4.62
2023-04-27T04:00:37.519Z,5.35
2023-04-27T04:05:40.931Z,6.03
2023-04-27T04:10:43.847Z,6.59
2023-04-27T04:15:46.667Z,7.16
2023-04-27T04:20:49.534Z,7.49
2023-04-27T04:25:52.365Z,7.76
2023-04-27T04:30:55.774Z,7.93
2023-04-27T04:35:58.891Z,8.15
2023-04-27T04:41:02.475Z,8.25
2023-04-27T04:46:06.497Z,8.49
2023-04-27T04:51:09.492Z,8.60
2023-04-27T04:56:14.447Z,8.66
2023-04-27T05:01:17.384Z,8.66
2023-04-27T05:06:20.268Z,8.71
2023-04-27T05:11:23.334Z,8.74
2023-04-27T05:16:26.637Z,8.98
2023-04-27T05:21:29.593Z,9.13
2023-04-27T05:26:32.429Z,9.20
2023-04-27T05:31:35.339Z,8.92
2023-04-27T05:36:38.178Z,8.27
2023-04-27T05:41:41.185Z,8.24
2023-04-27T05:46:44.049Z,8.52
2023-04-27T05:51:46.831Z,8.96
2023-04-27T05:56:50.432Z,9.45
2023-04-27T06:01:53.387Z,9.76
2023-04-27T06:06:56.421Z,10.14
2023-04-27T06:11:59.648Z,10.56
2023-04-27T06:17:03.599Z,10.83
2023-04-27T06:22:10.237Z,10.89
2023-04-27T06:27:15.570Z,11.15
2023-04-27T06:32:20.744Z,11.54
2023-04-27T06:37:23.672Z,11.81
2023-04-27T06:42:27.423Z,11.90
2023-04-27T06:47:30.573Z,12.13
2023-04-27T06:52:33.959Z,11.43
2023-04-27T06:57:36.911Z,11.12
2023-04-27T07:02:39.907Z,10.42
2023-04-27T07:07:42.874Z,10.11
2023-04-27T07:12:46.594Z,10.17
2023-04-27T07:17:51.167Z,10.10
2023-04-27T07:22:54.054Z,10.42
2023-04-27T07:27:57.067Z,10.38
2023-04-27T07:33:01.066Z,11.35
2023-04-27T07:38:04.023Z,11.17
2023-04-27T07:43:07.118Z,10.30
2023-04-27T07:48:10.607Z,10.01
2023-04-27T07:53:13.543Z,9.85
2023-04-27T07:58:16.645Z,9.90
2023-04-27T08:03:19.861Z,10.66
2023-04-27T08:08:22.908Z,11.79
2023-04-27T08:13:26.020Z,12.09
2023-04-27T08:18:29.038Z,11.93
2023-04-27T08:23:33.105Z,11.29
2023-04-27T08:28:36.102Z,10.50
2023-04-27T08:33:39.110Z,10.03
2023-04-27T08:38:42.084Z,9.69
2023-04-27T08:43:45.397Z,9.21
2023-04-27T08:48:52.253Z,9.23
2023-04-27T08:53:58.297Z,10.27
2023-04-27T08:59:04.643Z,11.31
2023-04-27T09:04:07.827Z,12.43
2023-04-27T09:09:21.306Z,13.40
2023-04-27T09:14:24.843Z,13.09
2023-04-27T09:19:30.526Z,11.99
2023-04-27T09:24:34.151Z,10.96
2023-04-27T09:29:38.994Z,10.60
2023-04-27T09:34:42.064Z,10.75
2023-04-27T09:39:46.096Z,11.40
2023-04-27T09:44:50.230Z,12.11
2023-04-27T09:49:53.041Z,11.61
2023-04-27T09:54:58.697Z,11.02
2023-04-27T10:00:57.209Z,10.71
2023-04-27T10:06:42.826Z,11.54
2023-04-27T10:11:46.018Z,11.79
2023-04-27T10:16:54.140Z,11.20
2023-04-27T10:22:02.405Z,10.77
2023-04-27T10:27:08.836Z,10.65
2023-04-27T10:32:21.854Z,10.31
2023-04-27T10:37:40.812Z,10.44
2023-04-27T10:42:46.601Z,11.56
2023-04-27T10:47:49.719Z,12.29
2023-04-27T10:52:52.820Z,12.50
2023-04-27T10:57:57.525Z,12.41
2023-04-27T11:03:20.942Z,11.89
2023-04-27T11:08:24.052Z,11.54
2023-04-27T11:13:28.698Z,11.13
2023-04-27T11:18:33.718Z,11.07
2023-04-27T11:23:38.736Z,11.23
2023-04-27T11:29:09.495Z,11.53
2023-04-27T11:34:20.351Z,11.86
2023-04-27T11:39:23.937Z,12.50
2023-04-27T11:44:27.793Z,12.84
2023-04-27T11:49:30.834Z,12.97
2023-04-27T11:54:40.770Z,12.25
2023-04-27T11:59:43.880Z,11.51
2023-04-27T12:04:47.937Z,11.40
2023-04-27T12:09:51.679Z,11.41
2023-04-27T12:14:54.633Z,11.51
2023-04-27T12:19:57.841Z,11.92
2023-04-27T12:25:02.284Z,13.05
2023-04-27T12:30:06.804Z,13.59
2023-04-27T12:35:13.564Z,13.14
2023-04-27T12:40:17.499Z,12.82
2023-04-27T12:45:21.393Z,13.34
2023-04-27T12:50:24.380Z,14.12
2023-04-27T12:55:33.609Z,14.40
2023-04-27T13:00:36.881Z,13.68
2023-04-27T13:05:39.877Z,11.24
2023-04-27T13:10:43.023Z,9.26
2023-04-27T13:15:46.644Z,8.58
2023-04-27T13:20:51.715Z,8.11
2023-04-27T13:25:55.724Z,7.72
2023-04-27T13:31:00.483Z,7.70
2023-04-27T13:36:04.516Z,7.82
2023-04-27T13:41:08.905Z,8.06
2023-04-27T13:46:12.713Z,8.44
2023-04-27T13:51:16.099Z,9.03
2023-04-27T13:56:19.430Z,9.64
2023-04-27T14:01:23.755Z,9.93
2023-04-27T14:06:28.123Z,9.48
2023-04-27T14:11:37.316Z,9.17
2023-04-27T14:16:51.525Z,8.82
2023-04-27T14:21:56.587Z,8.59
2023-04-27T14:27:00.804Z,8.56
2023-04-27T14:32:04.555Z,8.40
2023-04-27T14:37:07.511Z,7.96
2023-04-27T14:42:11.152Z,7.91
2023-04-27T14:47:15.093Z,7.93
2023-04-27T14:52:18.296Z,7.84
2023-04-27T14:57:21.721Z,7.84
2023-04-27T15:02:25.245Z,7.98
2023-04-27T15:07:28.595Z,8.18
2023-04-27T15:12:31.766Z,8.43
2023-04-27T15:17:35.475Z,8.85
2023-04-27T15:22:38.450Z,9.37
2023-04-27T15:27:41.603Z,9.72
2023-04-27T15:32:44.844Z,10.09
2023-04-27T15:37:48.051Z,10.45
2023-04-27T15:42:51.286Z,10.76
2023-04-27T15:48:04.539Z,9.98
2023-04-27T15:53:07.957Z,9.87
2023-04-27T15:58:11.431Z,9.67
2023-04-27T16:03:14.701Z,9.24
2023-04-27T16:08:18.839Z,9.07
2023-04-27T16:13:46.498Z,9.11
2023-04-27T16:18:50.198Z,9.23
2023-04-27T16:23:53.242Z,9.35
2023-04-27T16:28:56.642Z,9.31
2023-04-27T16:33:59.632Z,9.55
2023-04-27T16:39:04.969Z,10.11
2023-04-27T16:44:08.216Z,10.68
2023-04-27T16:49:12.053Z,11.08
2023-04-27T16:54:19.010Z,11.22
2023-04-27T16:59:23.574Z,11.14
2023-04-27T17:04:27.376Z,10.88
2023-04-27T17:09:30.494Z,10.94
2023-04-27T17:14:33.890Z,10.79
2023-04-27T17:19:39.642Z,10.63
2023-04-27T17:24:44.055Z,10.49
2023-04-27T17:29:51.925Z,10.35
2023-04-27T17:34:55.521Z,10.13
2023-04-27T17:40:00.665Z,9.50
2023-04-27T17:45:05.033Z,8.95
2023-04-27T17:50:12.349Z,8.70
2023-04-27T17:55:15.649Z,8.59
2023-04-27T18:00:19.914Z,8.29
2023-04-27T18:05:23.371Z,7.88
2023-04-27T18:10:26.429Z,7.53
2023-04-27T18:15:29.437Z,7.22
2023-04-27T18:20:32.505Z,7.00
2023-04-27T18:25:35.719Z,6.81
2023-04-27T18:30:42.117Z,6.68
2023-04-27T18:35:47.413Z,6.60
2023-04-27T18:40:51.100Z,6.63
2023-04-27T18:45:54.671Z,6.60
2023-04-27T18:50:58.014Z,6.47
2023-04-27T18:56:01.500Z,6.31
2023-04-27T19:01:04.615Z,6.21
2023-04-27T19:06:07.877Z,6.13
2023-04-27T19:11:14.401Z,6.10
2023-04-27T19:16:18.454Z,6.01
2023-04-27T19:21:23.720Z,5.72
2023-04-27T19:26:29.805Z,5.35
2023-04-27T19:31:33.912Z,5.15
2023-04-27T19:36:38.624Z,4.99
2023-04-27T19:41:46.898Z,4.74
2023-04-27T19:46:52.224Z,4.61
2023-04-27T19:51:55.977Z,4.49
2023-04-27T19:56:59.018Z,4.40
2023-04-27T20:02:01.943Z,4.38
2023-04-27T20:07:06.007Z,4.39
2023-04-27T20:12:19.400Z,4.38
2023-04-27T20:17:54.809Z,4.31
2023-04-27T20:23:04.578Z,4.25
2023-04-27T20:28:08.335Z,4.18
2023-04-27T20:33:13.270Z,4.14
2023-04-27T20:38:17.538Z,4.14
2023-04-27T20:43:21.351Z,3.92
2023-04-27T20:48:26.926Z,3.79
2023-04-27T20:53:30.272Z,3.76
2023-04-27T20:58:33.277Z,3.76
2023-04-27T21:03:36.458Z,3.67
2023-04-27T21:08:39.678Z,3.52
2023-04-27T21:13:42.933Z,3.34
2023-04-27T21:18:46.032Z,3.17
2023-04-27T21:23:54.374Z,3.12
2023-04-27T21:29:06.105Z,3.00
2023-04-27T21:34:09.029Z,2.98
2023-04-27T21:39:12.041Z,3.02
2023-04-27T21:44:15.226Z,3.03
2023-04-27T21:49:18.246Z,3.12
2023-04-27T21:54:21.710Z,3.21
2023-04-27T21:59:24.587Z,3.04
2023-04-27T22:04:28.815Z,2.80
2023-04-27T22:09:31.997Z,2.58
2023-04-27T22:14:34.927Z,2.53
2023-04-27T22:19:37.854Z,2.47
2023-04-27T22:24:40.946Z,2.32
2023-04-27T22:29:43.945Z,2.06
2023-04-27T22:34:46.850Z,1.89
2023-04-27T22:39:50.668Z,1.91
2023-04-27T22:44:53.513Z,1.69
2023-04-27T22:49:56.424Z,1.38
2023-04-27T22:55:01.952Z,1.27
2023-04-27T23:00:05.923Z,1.30
2023-04-27T23:05:11.026Z,1.19
2023-04-27T23:10:15.253Z,1.18
2023-04-27T23:15:18.589Z,1.32
2023-04-27T23:20:28.034Z,1.46
2023-04-27T23:25:33.432Z,1.33
2023-04-27T23:30:36.599Z,1.25
2023-04-27T23:35:39.538Z,1.18
2023-04-27T23:40:42.404Z,1.12
2023-04-27T23:45:52.794Z,1.11
2023-04-27T23:51:01.024Z,1.22
2023-04-27T23:56:04.126Z,1.25
